Bass, Arkansas
Current Conditions -  °F | °C
As of 7:53 AM on Wednesday 28 Jan 2015 (Local Time) from KHRO Reporting Station
Clear Clear  
Wind Chill: -1°   Ceiling: Unl
Heat Index:   Visibility: 10mi
Dew Point:   Wind: 13mph
Humidity: 86%   Direction: 130°SE
Pressure: 30.14"   Gusts: NA
Location:  35.9°N, 93°W
Report Text: KHRO 281353Z AUTO 13011KT 10SM CLR 03/01 A3014 RMK AO2 SLP208 T00330011
Loading
Personal Weather Stations






























Interactive Weather Map New forecast layout! Learn more

10-Day Weather Forecast

Advertisements
Track Severe Weather on mobile